sensor_id;sensor_type;location;lat;lon;timestamp;temperature;humidity
20487;DHT22;10402;49.012;8.370;2023-01-05T00:02:16;11.70;94.20
20487;DHT22;10402;49.012;8.370;2023-01-05T00:04:41;11.70;94.20
20487;DHT22;10402;49.012;8.370;2023-01-05T00:07:07;11.70;94.30
20487;DHT22;10402;49.012;8.370;2023-01-05T00:09:32;11.70;94.30
20487;DHT22;10402;49.012;8.370;2023-01-05T00:11:58;11.60;94.30
20487;DHT22;10402;49.012;8.370;2023-01-05T00:14:42;11.60;94.30
20487;DHT22;10402;49.012;8.370;2023-01-05T00:17:26;11.70;94.40
20487;DHT22;10402;49.012;8.370;2023-01-05T00:20:14;11.70;94.40
20487;DHT22;10402;49.012;8.370;2023-01-05T00:22:58;11.60;94.40
20487;DHT22;10402;49.012;8.370;2023-01-05T00:25:26;11.60;94.50
20487;DHT22;10402;49.012;8.370;2023-01-05T00:27:53;11.60;94.50
20487;DHT22;10402;49.012;8.370;2023-01-05T00:30:21;11.60;94.60
20487;DHT22;10402;49.012;8.370;2023-01-05T00:32:46;11.60;94.60
20487;DHT22;10402;49.012;8.370;2023-01-05T00:35:14;11.60;94.60
20487;DHT22;10402;49.012;8.370;2023-01-05T00:37:40;11.60;94.70
20487;DHT22;10402;49.012;8.370;2023-01-05T00:40:08;11.60;94.80
20487;DHT22;10402;49.012;8.370;2023-01-05T00:42:34;11.60;94.80
20487;DHT22;10402;49.012;8.370;2023-01-05T00:45:00;11.60;94.90
20487;DHT22;10402;49.012;8.370;2023-01-05T00:47:25;11.60;94.90
20487;DHT22;10402;49.012;8.370;2023-01-05T00:49:51;11.60;94.90
20487;DHT22;10402;49.012;8.370;2023-01-05T00:52:16;11.60;95.00
20487;DHT22;10402;49.012;8.370;2023-01-05T00:54:42;11.60;95.00
20487;DHT22;10402;49.012;8.370;2023-01-05T00:57:11;11.60;95.00
20487;DHT22;10402;49.012;8.370;2023-01-05T00:59:37;11.60;95.00
20487;DHT22;10402;49.012;8.370;2023-01-05T01:02:03;11.60;95.10
20487;DHT22;10402;49.012;8.370;2023-01-05T01:04:30;11.60;95.10
20487;DHT22;10402;49.012;8.370;2023-01-05T01:06:56;11.60;95.10
20487;DHT22;10402;49.012;8.370;2023-01-05T01:09:22;11.60;95.20
20487;DHT22;10402;49.012;8.370;2023-01-05T01:11:47;11.60;95.20
20487;DHT22;10402;49.012;8.370;2023-01-05T01:14:13;11.60;95.30
20487;DHT22;10402;49.012;8.370;2023-01-05T01:16:40;11.60;95.40
20487;DHT22;10402;49.012;8.370;2023-01-05T01:19:07;11.60;95.40
20487;DHT22;10402;49.012;8.370;2023-01-05T01:21:33;11.60;95.40
20487;DHT22;10402;49.012;8.370;2023-01-05T01:23:59;11.60;95.40
20487;DHT22;10402;49.012;8.370;2023-01-05T01:26:24;11.60;95.50
20487;DHT22;10402;49.012;8.370;2023-01-05T01:28:50;11.60;95.50
20487;DHT22;10402;49.012;8.370;2023-01-05T01:31:15;11.60;95.50
20487;DHT22;10402;49.012;8.370;2023-01-05T01:33:41;11.60;95.60
20487;DHT22;10402;49.012;8.370;2023-01-05T01:36:07;11.60;95.60
20487;DHT22;10402;49.012;8.370;2023-01-05T01:38:33;11.60;95.70
20487;DHT22;10402;49.012;8.370;2023-01-05T01:40:59;11.60;95.80
20487;DHT22;10402;49.012;8.370;2023-01-05T01:43:44;11.70;95.80
20487;DHT22;10402;49.012;8.370;2023-01-05T01:46:11;11.70;95.80
20487;DHT22;10402;49.012;8.370;2023-01-05T01:48:38;11.70;95.80
20487;DHT22;10402;49.012;8.370;2023-01-05T01:51:16;11.70;95.80
20487;DHT22;10402;49.012;8.370;2023-01-05T01:53:45;11.70;95.80
20487;DHT22;10402;49.012;8.370;2023-01-05T01:56:16;11.80;95.80
20487;DHT22;10402;49.012;8.370;2023-01-05T01:58:42;11.70;95.80
20487;DHT22;10402;49.012;8.370;2023-01-05T02:01:09;11.80;95.80
20487;DHT22;10402;49.012;8.370;2023-01-05T02:03:35;11.80;95.80
20487;DHT22;10402;49.012;8.370;2023-01-05T02:06:01;11.80;95.80
20487;DHT22;10402;49.012;8.370;2023-01-05T02:08:26;11.80;95.90
20487;DHT22;10402;49.012;8.370;2023-01-05T02:16:44;11.80;95.90
20487;DHT22;10402;49.012;8.370;2023-01-05T02:22:31;11.90;95.90
20487;DHT22;10402;49.012;8.370;2023-01-05T02:27:48;11.80;95.90
20487;DHT22;10402;49.012;8.370;2023-01-05T02:30:39;11.80;95.90
20487;DHT22;10402;49.012;8.370;2023-01-05T02:39:08;11.80;96.10
20487;DHT22;10402;49.012;8.370;2023-01-05T02:44:19;11.80;96.10
20487;DHT22;10402;49.012;8.370;2023-01-05T02:46:46;11.80;96.20
20487;DHT22;10402;49.012;8.370;2023-01-05T02:49:23;11.70;96.30
20487;DHT22;10402;49.012;8.370;2023-01-05T02:51:53;11.70;96.40
20487;DHT22;10402;49.012;8.370;2023-01-05T02:54:30;11.70;96.40
20487;DHT22;10402;49.012;8.370;2023-01-05T02:57:09;11.70;96.40
20487;DHT22;10402;49.012;8.370;2023-01-05T02:59:42;11.70;96.50
20487;DHT22;10402;49.012;8.370;2023-01-05T03:02:15;11.70;96.50
20487;DHT22;10402;49.012;8.370;2023-01-05T03:07:25;11.60;96.60
20487;DHT22;10402;49.012;8.370;2023-01-05T03:09:52;11.70;96.60
20487;DHT22;10402;49.012;8.370;2023-01-05T03:12:35;11.70;96.60
20487;DHT22;10402;49.012;8.370;2023-01-05T03:15:29;11.70;96.60
20487;DHT22;10402;49.012;8.370;2023-01-05T03:17:58;11.60;96.60
20487;DHT22;10402;49.012;8.370;2023-01-05T03:20:27;11.70;97.10
20487;DHT22;10402;49.012;8.370;2023-01-05T03:22:57;11.60;96.80
20487;DHT22;10402;49.012;8.370;2023-01-05T03:25:43;11.60;96.80
20487;DHT22;10402;49.012;8.370;2023-01-05T03:28:47;11.60;96.80
20487;DHT22;10402;49.012;8.370;2023-01-05T03:31:35;11.60;96.90
20487;DHT22;10402;49.012;8.370;2023-01-05T03:37:23;11.60;97.00
20487;DHT22;10402;49.012;8.370;2023-01-05T03:39:50;11.60;97.00
20487;DHT22;10402;49.012;8.370;2023-01-05T03:42:16;11.60;97.00
20487;DHT22;10402;49.012;8.370;2023-01-05T03:44:45;11.60;97.00
20487;DHT22;10402;49.012;8.370;2023-01-05T03:47:11;11.60;97.10
20487;DHT22;10402;49.012;8.370;2023-01-05T03:49:37;11.60;97.10
20487;DHT22;10402;49.012;8.370;2023-01-05T03:52:03;11.60;97.10
20487;DHT22;10402;49.012;8.370;2023-01-05T03:54:29;11.60;97.10
20487;DHT22;10402;49.012;8.370;2023-01-05T03:56:54;11.60;97.20
20487;DHT22;10402;49.012;8.370;2023-01-05T03:59:20;11.60;97.20
20487;DHT22;10402;49.012;8.370;2023-01-05T04:01:46;11.60;97.30
20487;DHT22;10402;49.012;8.370;2023-01-05T04:04:12;11.60;97.30
20487;DHT22;10402;49.012;8.370;2023-01-05T04:06:37;11.70;97.40
20487;DHT22;10402;49.012;8.370;2023-01-05T04:09:03;11.60;97.30
20487;DHT22;10402;49.012;8.370;2023-01-05T04:11:28;11.60;97.40
20487;DHT22;10402;49.012;8.370;2023-01-05T04:13:54;11.60;97.40
20487;DHT22;10402;49.012;8.370;2023-01-05T04:16:20;11.70;97.50
20487;DHT22;10402;49.012;8.370;2023-01-05T04:18:45;11.70;97.50
20487;DHT22;10402;49.012;8.370;2023-01-05T04:21:11;11.70;97.40
20487;DHT22;10402;49.012;8.370;2023-01-05T04:23:37;11.70;97.40
20487;DHT22;10402;49.012;8.370;2023-01-05T04:26:03;11.70;97.50
20487;DHT22;10402;49.012;8.370;2023-01-05T04:28:29;11.70;97.50
20487;DHT22;10402;49.012;8.370;2023-01-05T04:30:55;11.70;97.60
20487;DHT22;10402;49.012;8.370;2023-01-05T04:33:21;11.70;97.60
20487;DHT22;10402;49.012;8.370;2023-01-05T04:35:47;11.70;97.60
20487;DHT22;10402;49.012;8.370;2023-01-05T04:38:13;11.70;97.60
20487;DHT22;10402;49.012;8.370;2023-01-05T04:40:39;11.70;97.70
20487;DHT22;10402;49.012;8.370;2023-01-05T04:43:05;11.70;97.70
20487;DHT22;10402;49.012;8.370;2023-01-05T04:45:31;11.70;97.70
20487;DHT22;10402;49.012;8.370;2023-01-05T04:47:57;11.80;97.70
20487;DHT22;10402;49.012;8.370;2023-01-05T04:50:23;11.70;97.70
20487;DHT22;10402;49.012;8.370;2023-01-05T04:52:48;11.70;97.80
20487;DHT22;10402;49.012;8.370;2023-01-05T04:55:14;11.70;97.80
20487;DHT22;10402;49.012;8.370;2023-01-05T04:57:40;11.80;97.90
20487;DHT22;10402;49.012;8.370;2023-01-05T05:00:06;11.80;97.90
20487;DHT22;10402;49.012;8.370;2023-01-05T05:02:32;11.80;97.90
20487;DHT22;10402;49.012;8.370;2023-01-05T05:04:57;11.80;97.90
20487;DHT22;10402;49.012;8.370;2023-01-05T05:07:23;11.80;97.90
20487;DHT22;10402;49.012;8.370;2023-01-05T05:09:48;11.80;97.90
20487;DHT22;10402;49.012;8.370;2023-01-05T05:12:14;11.80;97.90
20487;DHT22;10402;49.012;8.370;2023-01-05T05:14:40;11.80;97.90
20487;DHT22;10402;49.012;8.370;2023-01-05T05:17:05;11.80;97.90
20487;DHT22;10402;49.012;8.370;2023-01-05T05:19:31;11.80;97.90
20487;DHT22;10402;49.012;8.370;2023-01-05T05:21:57;11.80;97.90
20487;DHT22;10402;49.012;8.370;2023-01-05T05:24:22;11.80;97.90
20487;DHT22;10402;49.012;8.370;2023-01-05T05:26:48;11.80;97.90
20487;DHT22;10402;49.012;8.370;2023-01-05T05:29:13;11.90;97.90
20487;DHT22;10402;49.012;8.370;2023-01-05T05:31:39;11.90;98.00
20487;DHT22;10402;49.012;8.370;2023-01-05T05:34:05;11.90;98.00
20487;DHT22;10402;49.012;8.370;2023-01-05T05:36:31;11.90;97.90
20487;DHT22;10402;49.012;8.370;2023-01-05T05:38:57;12.00;98.00
20487;DHT22;10402;49.012;8.370;2023-01-05T05:41:23;11.90;97.90
20487;DHT22;10402;49.012;8.370;2023-01-05T05:43:49;12.00;98.00
20487;DHT22;10402;49.012;8.370;2023-01-05T05:46:15;11.90;97.90
20487;DHT22;10402;49.012;8.370;2023-01-05T05:48:40;12.00;98.00
20487;DHT22;10402;49.012;8.370;2023-01-05T05:51:06;12.00;98.00
20487;DHT22;10402;49.012;8.370;2023-01-05T05:53:31;11.90;97.90
20487;DHT22;10402;49.012;8.370;2023-01-05T05:55:57;12.00;97.90
20487;DHT22;10402;49.012;8.370;2023-01-05T05:58:22;12.00;97.90
20487;DHT22;10402;49.012;8.370;2023-01-05T06:00:48;12.00;97.90
20487;DHT22;10402;49.012;8.370;2023-01-05T06:03:13;12.00;97.80
20487;DHT22;10402;49.012;8.370;2023-01-05T06:05:39;12.00;97.80
20487;DHT22;10402;49.012;8.370;2023-01-05T06:08:04;12.00;97.80
20487;DHT22;10402;49.012;8.370;2023-01-05T06:10:30;12.00;97.70
20487;DHT22;10402;49.012;8.370;2023-01-05T06:12:55;12.10;97.80
20487;DHT22;10402;49.012;8.370;2023-01-05T06:15:22;12.00;97.70
20487;DHT22;10402;49.012;8.370;2023-01-05T06:17:48;12.10;97.80
20487;DHT22;10402;49.012;8.370;2023-01-05T06:20:14;12.10;97.70
20487;DHT22;10402;49.012;8.370;2023-01-05T06:22:41;12.10;97.70
20487;DHT22;10402;49.012;8.370;2023-01-05T06:25:07;12.10;97.70
20487;DHT22;10402;49.012;8.370;2023-01-05T06:27:34;12.10;97.70
20487;DHT22;10402;49.012;8.370;2023-01-05T06:29:59;12.10;97.70
20487;DHT22;10402;49.012;8.370;2023-01-05T06:32:25;12.10;97.80
20487;DHT22;10402;49.012;8.370;2023-01-05T06:34:50;12.10;97.80
20487;DHT22;10402;49.012;8.370;2023-01-05T06:37:16;12.10;97.80
20487;DHT22;10402;49.012;8.370;2023-01-05T06:39:41;12.10;97.80
20487;DHT22;10402;49.012;8.370;2023-01-05T06:42:07;12.00;97.70
20487;DHT22;10402;49.012;8.370;2023-01-05T06:44:32;12.00;97.80
20487;DHT22;10402;49.012;8.370;2023-01-05T06:46:58;12.10;97.90
20487;DHT22;10402;49.012;8.370;2023-01-05T06:49:23;12.10;97.90
20487;DHT22;10402;49.012;8.370;2023-01-05T06:51:49;12.00;97.90
20487;DHT22;10402;49.012;8.370;2023-01-05T06:54:14;12.00;97.90
20487;DHT22;10402;49.012;8.370;2023-01-05T06:56:40;12.00;97.90
20487;DHT22;10402;49.012;8.370;2023-01-05T06:59:05;12.00;98.00
20487;DHT22;10402;49.012;8.370;2023-01-05T07:01:31;12.00;98.00
20487;DHT22;10402;49.012;8.370;2023-01-05T07:03:56;12.00;98.00
20487;DHT22;10402;49.012;8.370;2023-01-05T07:06:22;12.00;98.10
20487;DHT22;10402;49.012;8.370;2023-01-05T07:08:47;12.00;98.10
20487;DHT22;10402;49.012;8.370;2023-01-05T07:11:13;12.00;98.10
20487;DHT22;10402;49.012;8.370;2023-01-05T07:13:38;12.00;98.10
20487;DHT22;10402;49.012;8.370;2023-01-05T07:16:04;12.00;98.10
20487;DHT22;10402;49.012;8.370;2023-01-05T07:18:30;12.00;98.10
20487;DHT22;10402;49.012;8.370;2023-01-05T07:20:58;12.00;98.10
20487;DHT22;10402;49.012;8.370;2023-01-05T07:23:24;12.00;98.00
20487;DHT22;10402;49.012;8.370;2023-01-05T07:25:50;12.00;98.00
20487;DHT22;10402;49.012;8.370;2023-01-05T07:28:15;12.00;98.00
20487;DHT22;10402;49.012;8.370;2023-01-05T07:30:41;12.00;98.00
20487;DHT22;10402;49.012;8.370;2023-01-05T07:33:06;12.00;97.90
20487;DHT22;10402;49.012;8.370;2023-01-05T07:35:32;12.10;98.00
20487;DHT22;10402;49.012;8.370;2023-01-05T07:37:57;12.00;97.90
20487;DHT22;10402;49.012;8.370;2023-01-05T07:40:23;12.10;97.80
20487;DHT22;10402;49.012;8.370;2023-01-05T07:42:53;12.10;97.70
20487;DHT22;10402;49.012;8.370;2023-01-05T07:45:19;12.10;97.50
20487;DHT22;10402;49.012;8.370;2023-01-05T07:47:45;12.10;97.40
20487;DHT22;10402;49.012;8.370;2023-01-05T07:50:11;12.10;97.30
20487;DHT22;10402;49.012;8.370;2023-01-05T07:52:37;12.20;97.20
20487;DHT22;10402;49.012;8.370;2023-01-05T07:55:04;12.20;97.10
20487;DHT22;10402;49.012;8.370;2023-01-05T07:57:29;12.20;97.00
20487;DHT22;10402;49.012;8.370;2023-01-05T07:59:55;12.20;96.80
20487;DHT22;10402;49.012;8.370;2023-01-05T08:02:20;12.20;96.80
20487;DHT22;10402;49.012;8.370;2023-01-05T08:04:46;12.20;96.80
20487;DHT22;10402;49.012;8.370;2023-01-05T08:07:12;12.30;96.70
20487;DHT22;10402;49.012;8.370;2023-01-05T08:09:40;12.20;96.60
20487;DHT22;10402;49.012;8.370;2023-01-05T08:12:24;12.30;96.60
20487;DHT22;10402;49.012;8.370;2023-01-05T08:14:51;12.30;96.90
20487;DHT22;10402;49.012;8.370;2023-01-05T08:17:16;12.30;96.60
20487;DHT22;10402;49.012;8.370;2023-01-05T08:19:42;12.30;96.60
20487;DHT22;10402;49.012;8.370;2023-01-05T08:22:07;12.30;96.60
20487;DHT22;10402;49.012;8.370;2023-01-05T08:24:33;12.30;96.60
20487;DHT22;10402;49.012;8.370;2023-01-05T08:26:58;12.30;96.60
20487;DHT22;10402;49.012;8.370;2023-01-05T08:29:24;12.30;96.60
20487;DHT22;10402;49.012;8.370;2023-01-05T08:31:49;12.30;96.60
20487;DHT22;10402;49.012;8.370;2023-01-05T08:34:15;12.30;96.60
20487;DHT22;10402;49.012;8.370;2023-01-05T08:36:40;12.30;96.50
20487;DHT22;10402;49.012;8.370;2023-01-05T08:39:08;12.30;96.40
20487;DHT22;10402;49.012;8.370;2023-01-05T08:41:36;12.30;96.40
20487;DHT22;10402;49.012;8.370;2023-01-05T08:44:04;12.30;96.30
20487;DHT22;10402;49.012;8.370;2023-01-05T08:46:33;12.30;96.10
20487;DHT22;10402;49.012;8.370;2023-01-05T08:49:00;12.30;96.10
20487;DHT22;10402;49.012;8.370;2023-01-05T08:51:26;12.30;96.10
20487;DHT22;10402;49.012;8.370;2023-01-05T08:53:52;12.30;96.00
20487;DHT22;10402;49.012;8.370;2023-01-05T08:56:18;12.30;95.90
20487;DHT22;10402;49.012;8.370;2023-01-05T08:58:44;12.30;95.80
20487;DHT22;10402;49.012;8.370;2023-01-05T09:01:13;12.30;95.70
20487;DHT22;10402;49.012;8.370;2023-01-05T09:03:39;12.30;95.70
20487;DHT22;10402;49.012;8.370;2023-01-05T09:06:06;12.30;95.60
20487;DHT22;10402;49.012;8.370;2023-01-05T09:08:34;12.30;95.60
20487;DHT22;10402;49.012;8.370;2023-01-05T09:11:07;12.30;95.50
20487;DHT22;10402;49.012;8.370;2023-01-05T09:13:34;12.40;95.50
20487;DHT22;10402;49.012;8.370;2023-01-05T09:16:07;12.30;95.40
20487;DHT22;10402;49.012;8.370;2023-01-05T09:18:33;12.40;95.40
20487;DHT22;10402;49.012;8.370;2023-01-05T09:20:59;12.40;95.30
20487;DHT22;10402;49.012;8.370;2023-01-05T09:23:25;12.40;95.30
20487;DHT22;10402;49.012;8.370;2023-01-05T09:25:50;12.40;95.20
20487;DHT22;10402;49.012;8.370;2023-01-05T09:28:16;12.40;95.10
20487;DHT22;10402;49.012;8.370;2023-01-05T09:30:41;12.40;95.00
20487;DHT22;10402;49.012;8.370;2023-01-05T09:33:07;12.40;94.90
20487;DHT22;10402;49.012;8.370;2023-01-05T09:35:32;12.40;94.80
20487;DHT22;10402;49.012;8.370;2023-01-05T09:37:58;12.40;94.70
20487;DHT22;10402;49.012;8.370;2023-01-05T09:40:24;12.40;94.70
20487;DHT22;10402;49.012;8.370;2023-01-05T09:42:50;12.40;94.60
20487;DHT22;10402;49.012;8.370;2023-01-05T09:45:24;12.40;94.60
20487;DHT22;10402;49.012;8.370;2023-01-05T09:47:52;12.40;94.50
20487;DHT22;10402;49.012;8.370;2023-01-05T09:50:25;12.40;94.50
20487;DHT22;10402;49.012;8.370;2023-01-05T09:52:54;12.50;94.50
20487;DHT22;10402;49.012;8.370;2023-01-05T09:55:23;12.50;94.40
20487;DHT22;10402;49.012;8.370;2023-01-05T09:57:56;12.50;94.20
20487;DHT22;10402;49.012;8.370;2023-01-05T10:00:23;12.50;94.20
20487;DHT22;10402;49.012;8.370;2023-01-05T10:02:56;12.60;94.20
20487;DHT22;10402;49.012;8.370;2023-01-05T10:05:22;12.60;94.10
20487;DHT22;10402;49.012;8.370;2023-01-05T10:07:59;12.60;93.80
20487;DHT22;10402;49.012;8.370;2023-01-05T10:10:55;12.60;93.80
20487;DHT22;10402;49.012;8.370;2023-01-05T10:13:55;12.60;93.80
20487;DHT22;10402;49.012;8.370;2023-01-05T10:16:21;12.70;93.90
20487;DHT22;10402;49.012;8.370;2023-01-05T10:18:47;12.70;93.90
20487;DHT22;10402;49.012;8.370;2023-01-05T10:21:26;12.70;93.70
20487;DHT22;10402;49.012;8.370;2023-01-05T10:24:16;12.70;93.60
20487;DHT22;10402;49.012;8.370;2023-01-05T10:27:04;12.70;93.50
20487;DHT22;10402;49.012;8.370;2023-01-05T10:29:42;12.70;93.40
20487;DHT22;10402;49.012;8.370;2023-01-05T10:32:23;12.70;93.30
20487;DHT22;10402;49.012;8.370;2023-01-05T10:37:48;12.80;93.40
20487;DHT22;10402;49.012;8.370;2023-01-05T10:45:42;12.70;93.20
20487;DHT22;10402;49.012;8.370;2023-01-05T10:48:16;12.80;93.20
20487;DHT22;10402;49.012;8.370;2023-01-05T10:50:44;12.80;93.10
20487;DHT22;10402;49.012;8.370;2023-01-05T10:53:15;12.80;93.00
20487;DHT22;10402;49.012;8.370;2023-01-05T10:58:25;12.90;93.10
20487;DHT22;10402;49.012;8.370;2023-01-05T11:00:54;12.90;93.00
20487;DHT22;10402;49.012;8.370;2023-01-05T11:03:28;12.90;92.90
20487;DHT22;10402;49.012;8.370;2023-01-05T11:05:54;13.00;93.00
20487;DHT22;10402;49.012;8.370;2023-01-05T11:08:27;13.00;92.80
20487;DHT22;10402;49.012;8.370;2023-01-05T11:10:59;13.00;92.80
20487;DHT22;10402;49.012;8.370;2023-01-05T11:13:46;13.00;92.70
20487;DHT22;10402;49.012;8.370;2023-01-05T11:16:21;13.00;92.70
20487;DHT22;10402;49.012;8.370;2023-01-05T11:19:05;13.00;92.50
20487;DHT22;10402;49.012;8.370;2023-01-05T11:24:02;13.00;92.40
20487;DHT22;10402;49.012;8.370;2023-01-05T11:26:36;13.00;92.30
20487;DHT22;10402;49.012;8.370;2023-01-05T11:29:10;13.00;92.20
20487;DHT22;10402;49.012;8.370;2023-01-05T11:31:59;13.00;92.30
20487;DHT22;10402;49.012;8.370;2023-01-05T11:34:45;12.90;92.10
20487;DHT22;10402;49.012;8.370;2023-01-05T11:42:27;13.00;92.00
20487;DHT22;10402;49.012;8.370;2023-01-05T11:52:45;13.10;91.90
20487;DHT22;10402;49.012;8.370;2023-01-05T11:55:36;13.10;91.90
20487;DHT22;10402;49.012;8.370;2023-01-05T11:58:14;13.20;91.90
20487;DHT22;10402;49.012;8.370;2023-01-05T12:05:58;13.20;91.70
20487;DHT22;10402;49.012;8.370;2023-01-05T12:08:49;13.20;91.70
20487;DHT22;10402;49.012;8.370;2023-01-05T12:11:19;13.20;91.70
20487;DHT22;10402;49.012;8.370;2023-01-05T12:14:09;13.20;91.50
20487;DHT22;10402;49.012;8.370;2023-01-05T12:17:11;13.20;91.40
20487;DHT22;10402;49.012;8.370;2023-01-05T12:26:23;13.20;91.40
20487;DHT22;10402;49.012;8.370;2023-01-05T12:37:35;13.20;91.30
20487;DHT22;10402;49.012;8.370;2023-01-05T12:43:31;13.20;91.20
20487;DHT22;10402;49.012;8.370;2023-01-05T12:46:15;13.20;91.20
20487;DHT22;10402;49.012;8.370;2023-01-05T12:51:21;13.20;91.10
20487;DHT22;10402;49.012;8.370;2023-01-05T12:54:15;13.20;91.10
20487;DHT22;10402;49.012;8.370;2023-01-05T12:56:50;13.30;91.00
20487;DHT22;10402;49.012;8.370;2023-01-05T13:04:50;13.30;90.90
20487;DHT22;10402;49.012;8.370;2023-01-05T13:09:55;13.30;90.70
20487;DHT22;10402;49.012;8.370;2023-01-05T13:12:21;13.30;90.70
20487;DHT22;10402;49.012;8.370;2023-01-05T13:17:55;13.30;90.50
20487;DHT22;10402;49.012;8.370;2023-01-05T13:23:09;13.30;90.50
20487;DHT22;10402;49.012;8.370;2023-01-05T13:25:44;13.30;90.30
20487;DHT22;10402;49.012;8.370;2023-01-05T13:28:19;13.30;90.20
20487;DHT22;10402;49.012;8.370;2023-01-05T13:33:38;13.30;90.30
20487;DHT22;10402;49.012;8.370;2023-01-05T13:47:24;13.20;90.00
20487;DHT22;10402;49.012;8.370;2023-01-05T13:50:02;13.30;90.20
20487;DHT22;10402;49.012;8.370;2023-01-05T13:52:50;13.20;90.20
20487;DHT22;10402;49.012;8.370;2023-01-05T13:55:19;13.20;90.20
20487;DHT22;10402;49.012;8.370;2023-01-05T13:57:46;13.20;90.20
20487;DHT22;10402;49.012;8.370;2023-01-05T14:08:34;13.20;90.20
20487;DHT22;10402;49.012;8.370;2023-01-05T14:11:16;13.20;90.10
20487;DHT22;10402;49.012;8.370;2023-01-05T14:13:51;13.20;90.20
20487;DHT22;10402;49.012;8.370;2023-01-05T14:27:03;13.20;90.00
20487;DHT22;10402;49.012;8.370;2023-01-05T14:32:21;13.20;90.00
20487;DHT22;10402;49.012;8.370;2023-01-05T14:34:52;13.20;90.00
20487;DHT22;10402;49.012;8.370;2023-01-05T14:37:22;13.20;90.00
20487;DHT22;10402;49.012;8.370;2023-01-05T14:39:48;13.20;89.90
20487;DHT22;10402;49.012;8.370;2023-01-05T14:42:31;13.30;89.90
20487;DHT22;10402;49.012;8.370;2023-01-05T14:45:01;13.20;89.80
20487;DHT22;10402;49.012;8.370;2023-01-05T14:47:45;13.20;89.60
20487;DHT22;10402;49.012;8.370;2023-01-05T14:50:30;13.20;89.60
20487;DHT22;10402;49.012;8.370;2023-01-05T14:55:31;13.20;89.60
20487;DHT22;10402;49.012;8.370;2023-01-05T14:57:59;13.20;89.60
20487;DHT22;10402;49.012;8.370;2023-01-05T15:03:23;13.20;89.40
20487;DHT22;10402;49.012;8.370;2023-01-05T15:11:16;13.30;89.20
20487;DHT22;10402;49.012;8.370;2023-01-05T15:17:20;13.20;88.80
20487;DHT22;10402;49.012;8.370;2023-01-05T15:25:27;13.20;88.30
20487;DHT22;10402;49.012;8.370;2023-01-05T15:31:11;13.20;88.30
20487;DHT22;10402;49.012;8.370;2023-01-05T15:33:51;13.10;88.20
20487;DHT22;10402;49.012;8.370;2023-01-05T15:39:22;13.10;88.20
20487;DHT22;10402;49.012;8.370;2023-01-05T15:41:48;13.10;88.10
20487;DHT22;10402;49.012;8.370;2023-01-05T15:44:16;13.10;88.00
20487;DHT22;10402;49.012;8.370;2023-01-05T15:46:43;13.10;88.10
20487;DHT22;10402;49.012;8.370;2023-01-05T15:49:18;13.10;88.00
20487;DHT22;10402;49.012;8.370;2023-01-05T15:51:52;13.10;87.70
20487;DHT22;10402;49.012;8.370;2023-01-05T15:54:24;13.10;87.70
20487;DHT22;10402;49.012;8.370;2023-01-05T15:56:50;13.10;87.70
20487;DHT22;10402;49.012;8.370;2023-01-05T15:59:30;13.10;87.70
20487;DHT22;10402;49.012;8.370;2023-01-05T16:01:55;13.10;87.60
20487;DHT22;10402;49.012;8.370;2023-01-05T16:04:21;13.10;87.50
20487;DHT22;10402;49.012;8.370;2023-01-05T16:06:51;13.10;87.60
20487;DHT22;10402;49.012;8.370;2023-01-05T16:12:01;13.10;87.50
20487;DHT22;10402;49.012;8.370;2023-01-05T16:14:42;13.10;87.60
20487;DHT22;10402;49.012;8.370;2023-01-05T16:17:14;13.10;87.50
20487;DHT22;10402;49.012;8.370;2023-01-05T16:19:48;13.10;87.60
20487;DHT22;10402;49.012;8.370;2023-01-05T16:22:24;13.00;87.40
20487;DHT22;10402;49.012;8.370;2023-01-05T16:27:19;13.00;87.60
20487;DHT22;10402;49.012;8.370;2023-01-05T16:29:46;13.00;87.60
20487;DHT22;10402;49.012;8.370;2023-01-05T16:32:26;13.00;87.60
20487;DHT22;10402;49.012;8.370;2023-01-05T16:35:19;13.00;87.60
20487;DHT22;10402;49.012;8.370;2023-01-05T16:37:44;13.00;87.70
20487;DHT22;10402;49.012;8.370;2023-01-05T16:40:20;13.00;87.40
20487;DHT22;10402;49.012;8.370;2023-01-05T16:42:48;13.00;87.40
20487;DHT22;10402;49.012;8.370;2023-01-05T16:45:20;13.00;87.40
20487;DHT22;10402;49.012;8.370;2023-01-05T16:47:46;13.00;87.40
20487;DHT22;10402;49.012;8.370;2023-01-05T16:53:13;13.00;87.60
20487;DHT22;10402;49.012;8.370;2023-01-05T16:55:40;13.00;87.50
20487;DHT22;10402;49.012;8.370;2023-01-05T16:58:32;12.90;87.40
20487;DHT22;10402;49.012;8.370;2023-01-05T17:01:15;12.90;87.70
20487;DHT22;10402;49.012;8.370;2023-01-05T17:03:42;12.90;87.60
20487;DHT22;10402;49.012;8.370;2023-01-05T17:06:28;12.90;87.50
20487;DHT22;10402;49.012;8.370;2023-01-05T17:08:59;13.00;87.70
20487;DHT22;10402;49.012;8.370;2023-01-05T17:11:36;12.90;87.50
20487;DHT22;10402;49.012;8.370;2023-01-05T17:14:02;13.00;87.60
20487;DHT22;10402;49.012;8.370;2023-01-05T17:16:29;13.00;87.50
20487;DHT22;10402;49.012;8.370;2023-01-05T17:18:54;13.00;87.40
20487;DHT22;10402;49.012;8.370;2023-01-05T17:21:23;12.90;87.30
20487;DHT22;10402;49.012;8.370;2023-01-05T17:23:54;13.00;87.40
20487;DHT22;10402;49.012;8.370;2023-01-05T17:26:27;12.90;87.30
20487;DHT22;10402;49.012;8.370;2023-01-05T17:28:58;13.00;87.50
20487;DHT22;10402;49.012;8.370;2023-01-05T17:31:24;12.90;87.40
20487;DHT22;10402;49.012;8.370;2023-01-05T17:33:50;12.90;87.40
20487;DHT22;10402;49.012;8.370;2023-01-05T17:36:17;13.00;87.50
20487;DHT22;10402;49.012;8.370;2023-01-05T17:38:42;12.90;87.40
20487;DHT22;10402;49.012;8.370;2023-01-05T17:41:11;12.90;87.50
20487;DHT22;10402;49.012;8.370;2023-01-05T17:43:37;12.90;87.70
20487;DHT22;10402;49.012;8.370;2023-01-05T17:46:02;12.90;87.70
20487;DHT22;10402;49.012;8.370;2023-01-05T17:48:28;12.80;87.90
20487;DHT22;10402;49.012;8.370;2023-01-05T17:50:54;12.80;87.90
20487;DHT22;10402;49.012;8.370;2023-01-05T17:53:19;12.80;88.10
20487;DHT22;10402;49.012;8.370;2023-01-05T17:55:45;12.80;88.50
20487;DHT22;10402;49.012;8.370;2023-01-05T17:58:14;12.80;88.60
20487;DHT22;10402;49.012;8.370;2023-01-05T18:00:40;12.80;88.80
20487;DHT22;10402;49.012;8.370;2023-01-05T18:03:13;12.80;88.90
20487;DHT22;10402;49.012;8.370;2023-01-05T18:05:46;12.80;89.10
20487;DHT22;10402;49.012;8.370;2023-01-05T18:08:12;12.80;89.10
20487;DHT22;10402;49.012;8.370;2023-01-05T18:10:38;12.70;89.20
20487;DHT22;10402;49.012;8.370;2023-01-05T18:13:04;12.70;89.20
20487;DHT22;10402;49.012;8.370;2023-01-05T18:15:30;12.70;89.40
20487;DHT22;10402;49.012;8.370;2023-01-05T18:17:57;12.70;89.50
20487;DHT22;10402;49.012;8.370;2023-01-05T18:20:24;12.70;89.60
20487;DHT22;10402;49.012;8.370;2023-01-05T18:22:49;12.70;89.60
20487;DHT22;10402;49.012;8.370;2023-01-05T18:25:16;12.70;89.80
20487;DHT22;10402;49.012;8.370;2023-01-05T18:27:41;12.70;90.00
20487;DHT22;10402;49.012;8.370;2023-01-05T18:30:08;12.70;90.00